Time;durP1;ratioP1;P1;durP2;ratioP2;P2;SDS_P1;SDS_P2;PMS_P1;PMS_P2;Temp;Humidity;BMP_temperature;BMP_pressure;BME280_temperature;BME280_humidity;BME280_pressure;Samples;Min_cycle;Max_cycle;Signal;HPM_P1;HPM_P2
2021/04/30 00:01:54;;;;;;;15.53;10.55;;;;;;;13.06;66.03;99438.26;1693493;83;21601;-50
2021/04/30 00:04:22;;;;;;;13.35;11.63;;;;;;;13.04;66.13;99437.47;1696876;83;21145;-51
2021/04/30 00:09:08;;;;;;;15.60;11.93;;;;;;;13.06;66.42;99426.08;1746629;79;22858;-51
2021/04/30 00:11:36;;;;;;;12.78;11.18;;;;;;;12.99;66.59;99433.33;1695505;82;20985;-52
2021/04/30 00:14:05;;;;;;;14.10;10.93;;;;;;;12.96;66.76;99434.41;1679631;84;22377;-51
2021/04/30 00:16:39;;;;;;;16.97;11.20;;;;;;;12.96;66.75;99434.90;1676268;84;21029;-51
2021/04/30 00:19:03;;;;;;;13.22;11.05;;;;;;;12.94;66.95;99434.97;1682936;84;21025;-51
2021/04/30 00:21:31;;;;;;;15.15;11.33;;;;;;;12.94;67.07;99433.62;1677464;84;20989;-51
2021/04/30 00:24:00;;;;;;;15.43;11.25;;;;;;;12.94;67.07;99440.88;1679937;84;20981;-52
2021/04/30 00:26:28;;;;;;;15.72;11.43;;;;;;;12.93;67.11;99434.59;1679197;84;21146;-51
2021/04/30 00:28:57;;;;;;;12.07;9.90;;;;;;;12.92;67.17;99431.51;1682216;84;20969;-54
2021/04/30 00:31:25;;;;;;;14.75;11.25;;;;;;;12.94;67.20;99420.09;1677911;84;21080;-51
2021/04/30 00:33:53;;;;;;;15.40;11.28;;;;;;;12.94;67.15;99424.15;1679443;84;21668;-51
2021/04/30 00:36:21;;;;;;;11.93;9.90;;;;;;;12.94;67.29;99428.20;1680708;84;21103;-52
2021/04/30 00:38:49;;;;;;;12.88;11.48;;;;;;;12.94;67.30;99435.46;1680534;84;21934;-52
2021/04/30 00:41:17;;;;;;;13.62;11.93;;;;;;;12.93;67.31;99431.89;1680327;84;21029;-51
2021/04/30 00:43:47;;;;;;;11.95;10.68;;;;;;;12.93;67.36;99426.47;1678413;84;21155;-50
2021/04/30 00:46:15;;;;;;;16.93;11.63;;;;;;;12.93;67.37;99422.41;1687711;84;21005;-50
2021/04/30 00:48:43;;;;;;;16.12;11.48;;;;;;;12.93;67.32;99429.19;1679133;84;21127;-52
2021/04/30 00:51:12;;;;;;;17.10;11.57;;;;;;;12.92;67.48;99430.16;1680821;84;21267;-51
2021/04/30 00:53:40;;;;;;;13.62;11.08;;;;;;;12.91;67.59;99423.02;1677274;84;21130;-52
2021/04/30 00:56:07;;;;;;;16.85;12.10;;;;;;;12.90;67.61;99419.92;1680957;84;21612;-52
2021/04/30 00:58:36;;;;;;;16.70;11.38;;;;;;;12.89;67.65;99424.96;1683852;84;21132;-51
2021/04/30 01:01:04;;;;;;;14.00;11.25;;;;;;;12.89;67.71;99427.67;1677763;84;21289;-52
2021/04/30 01:03:31;;;;;;;14.65;11.03;;;;;;;12.89;67.72;99430.37;1679390;83;21537;-51
2021/04/30 01:05:59;;;;;;;12.70;9.98;;;;;;;12.89;67.85;99423.61;1680172;84;21660;-51
2021/04/30 01:08:27;;;;;;;15.45;11.68;;;;;;;12.87;67.86;99421.47;1666293;84;21160;-51
2021/04/30 01:10:55;;;;;;;14.15;11.35;;;;;;;12.86;67.87;99419.73;1673719;84;21026;-51
2021/04/30 01:13:23;;;;;;;12.88;11.10;;;;;;;12.86;67.94;99414.33;1660231;84;21145;-52
2021/04/30 01:15:51;;;;;;;14.60;11.03;;;;;;;12.85;68.00;99409.88;1676253;84;21208;-51
2021/04/30 01:18:19;;;;;;;14.47;10.88;;;;;;;12.84;68.07;99419.84;1673178;84;21127;-51
2021/04/30 01:20:47;;;;;;;13.95;10.53;;;;;;;12.84;68.09;99414.92;1677655;83;21139;-52
2021/04/30 01:23:15;;;;;;;13.60;10.43;;;;;;;12.84;68.12;99416.27;1682665;84;21135;-51
2021/04/30 01:25:43;;;;;;;15.78;10.78;;;;;;;12.84;68.15;99405.45;1660022;85;21029;-51
2021/04/30 01:28:12;;;;;;;18.17;11.65;;;;;;;12.83;68.10;99406.39;1670890;84;21360;-51
2021/04/30 01:30:40;;;;;;;12.75;10.10;;;;;;;12.84;68.09;99394.13;1673857;84;21018;-51
2021/04/30 01:33:18;;;;;;;14.13;10.63;;;;;;;12.85;68.10;99393.64;1671578;84;21183;-51
2021/04/30 01:35:46;;;;;;;14.45;10.53;;;;;;;12.85;68.11;99397.22;1676642;84;21016;-50
2021/04/30 01:38:15;;;;;;;12.47;10.53;;;;;;;12.85;68.06;99388.23;1672832;84;21025;-51
2021/04/30 01:40:43;;;;;;;12.10;10.43;;;;;;;12.86;67.90;99394.02;1672146;84;21214;-51
2021/04/30 01:43:17;;;;;;;11.90;9.93;;;;;;;12.88;67.80;99388.50;1674177;83;21242;-52
2021/04/30 01:48:34;;;;;;;12.23;10.72;;;;;;;12.93;67.76;99388.58;1757887;77;27879;-51
2021/04/30 01:51:03;;;;;;;13.25;10.75;;;;;;;12.93;67.61;99395.34;1775162;79;20966;-50
2021/04/30 01:53:34;;;;;;;14.00;10.70;;;;;;;12.94;67.48;99398.44;1749968;79;21366;-50
2021/04/30 01:56:14;;;;;;;12.70;9.90;;;;;;;12.94;67.56;99391.66;1755677;79;20973;-51
2021/04/30 01:58:42;;;;;;;11.60;9.30;;;;;;;12.93;67.54;99384.52;1748629;80;20950;-51
2021/04/30 02:01:11;;;;;;;12.70;10.08;;;;;;;12.92;67.52;99381.44;1749426;79;21542;-50
2021/04/30 02:03:39;;;;;;;11.55;9.60;;;;;;;12.91;67.56;99377.00;1750056;79;21494;-51
2021/04/30 02:06:07;;;;;;;12.37;9.73;;;;;;;12.90;67.59;99375.76;1749832;79;21375;-53
2021/04/30 02:08:34;;;;;;;12.78;10.23;;;;;;;12.87;67.66;99372.75;1750095;79;21592;-53
2021/04/30 02:11:04;;;;;;;11.18;9.13;;;;;;;12.87;67.71;99371.89;1749207;79;21004;-54
2021/04/30 02:13:32;;;;;;;13.50;9.83;;;;;;;12.84;67.77;99372.97;1749216;79;20994;-55
2021/04/30 02:16:00;;;;;;;12.28;9.95;;;;;;;12.82;67.83;99369.48;1748997;79;21668;-57
2021/04/30 02:18:28;;;;;;;14.18;9.73;;;;;;;12.81;67.87;99366.39;1751721;79;22273;-54
2021/04/30 02:20:56;;;;;;;11.35;9.48;;;;;;;12.80;67.94;99370.08;1752767;79;21148;-53
2021/04/30 02:23:24;;;;;;;15.43;9.38;;;;;;;12.79;67.99;99371.05;1749456;79;20990;-55
2021/04/30 02:25:52;;;;;;;11.12;9.38;;;;;;;12.77;67.96;99363.50;1749826;79;21096;-53
2021/04/30 02:28:21;;;;;;;11.88;9.35;;;;;;;12.77;68.06;99355.38;1756690;79;21121;-53
2021/04/30 02:30:49;;;;;;;12.63;10.28;;;;;;;12.76;68.15;99357.70;1756174;79;21414;-55
2021/04/30 02:33:17;;;;;;;11.22;9.05;;;;;;;12.75;68.14;99356.84;1753916;79;21227;-55
2021/04/30 02:35:47;;;;;;;13.58;9.75;;;;;;;12.75;68.15;99351.92;1752245;80;20981;-54
2021/04/30 02:38:17;;;;;;;12.90;9.30;;;;;;;12.75;68.23;99347.86;1751069;80;20986;-56
2021/04/30 02:40:47;;;;;;;9.68;8.55;;;;;;;12.72;68.29;99353.45;1750745;79;21020;-56
2021/04/30 02:43:19;;;;;;;12.95;9.93;;;;;;;12.71;68.33;99353.08;1750381;79;21324;-54
2021/04/30 02:45:51;;;;;;;13.58;9.70;;;;;;;12.71;68.32;99355.78;1750038;79;21179;-54
2021/04/30 02:48:28;;;;;;;14.23;9.65;;;;;;;12.67;68.44;99355.11;1740408;80;21104;-54
2021/04/30 02:50:53;;;;;;;14.47;10.40;;;;;;;12.67;68.56;99359.66;1741318;81;22044;-53
2021/04/30 02:53:22;;;;;;;11.90;9.90;;;;;;;12.65;68.63;99353.48;1740334;79;21121;-54
2021/04/30 02:55:50;;;;;;;12.73;9.53;;;;;;;12.64;68.65;99366.63;1744200;81;21376;-55
2021/04/30 02:58:18;;;;;;;11.93;9.70;;;;;;;12.62;68.72;99359.08;1748649;79;21144;-54
2021/04/30 03:00:46;;;;;;;12.53;9.30;;;;;;;12.62;68.89;99364.48;1737811;79;21037;-54
2021/04/30 03:03:14;;;;;;;13.68;10.05;;;;;;;12.59;68.91;99356.97;1738644;79;20983;-46
2021/04/30 03:05:43;;;;;;;12.47;9.78;;;;;;;12.58;68.87;99369.25;1741393;79;20999;-47
2021/04/30 03:08:11;;;;;;;11.73;9.45;;;;;;;12.59;68.94;99364.22;1744719;80;21330;-47
2021/04/30 03:10:39;;;;;;;12.58;9.80;;;;;;;12.59;69.05;99372.34;1738677;79;21522;-46
2021/04/30 03:13:07;;;;;;;11.22;8.88;;;;;;;12.56;69.10;99369.33;1741502;79;20994;-46
2021/04/30 03:15:35;;;;;;;12.37;9.80;;;;;;;12.56;69.18;99369.33;1738701;79;21188;-47
2021/04/30 03:18:03;;;;;;;10.82;9.43;;;;;;;12.56;69.17;99370.69;1737453;80;20978;-48
2021/04/30 03:20:32;;;;;;;13.83;9.70;;;;;;;12.55;69.15;99370.30;1739220;79;21196;-46
2021/04/30 03:23:00;;;;;;;12.33;9.40;;;;;;;12.55;69.19;99368.95;1743326;81;20986;-46
2021/04/30 03:25:28;;;;;;;12.75;9.20;;;;;;;12.54;69.20;99372.62;1746866;79;21093;-46
2021/04/30 03:27:56;;;;;;;13.38;8.98;;;;;;;12.54;69.24;99368.58;1739338;79;21022;-47
2021/04/30 03:30:25;;;;;;;13.03;9.30;;;;;;;12.55;69.25;99374.36;1744574;80;21121;-45
2021/04/30 03:32:53;;;;;;;12.18;10.05;;;;;;;12.54;69.20;99376.69;1739016;80;22126;-47
2021/04/30 03:35:21;;;;;;;11.43;8.83;;;;;;;12.56;69.19;99383.34;1739201;79;21022;-48
2021/04/30 03:37:49;;;;;;;11.60;9.38;;;;;;;12.56;69.20;99385.56;1738486;80;21560;-47
2021/04/30 03:40:17;;;;;;;12.15;9.43;;;;;;;12.56;69.16;99380.15;1743330;79;21140;-47
2021/04/30 03:42:46;;;;;;;11.60;9.43;;;;;;;12.56;69.04;99385.56;1744922;81;20983;-48
2021/04/30 03:45:15;;;;;;;13.00;9.13;;;;;;;12.57;69.01;99383.75;1750049;79;22307;-47
2021/04/30 03:47:43;;;;;;;12.80;8.58;;;;;;;12.57;68.91;99371.09;1747924;79;20990;-48
2021/04/30 03:50:12;;;;;;;11.50;9.10;;;;;;;12.59;68.89;99376.39;1753485;80;21155;-46
2021/04/30 03:52:41;;;;;;;15.70;9.23;;;;;;;12.59;68.75;99374.55;1746587;79;21578;-47
2021/04/30 03:55:10;;;;;;;12.82;9.00;;;;;;;12.63;68.67;99362.20;1748494;79;21709;-47
2021/04/30 03:57:38;;;;;;;11.28;8.28;;;;;;;12.69;68.55;99360.44;1749098;81;22180;-47
2021/04/30 04:00:07;;;;;;;11.65;9.15;;;;;;;12.75;68.29;99370.86;1749714;79;20986;-48
2021/04/30 04:02:42;;;;;;;12.53;8.73;;;;;;;12.81;68.03;99377.22;1747082;80;20966;-47
2021/04/30 04:05:10;;;;;;;12.90;8.85;;;;;;;12.85;67.87;99369.29;1753254;79;20994;-55
2021/04/30 04:07:40;;;;;;;10.78;8.65;;;;;;;12.88;67.70;99371.77;1747553;79;20986;-49
2021/04/30 04:10:08;;;;;;;12.80;8.25;;;;;;;12.88;67.49;99367.72;1747063;80;21187;-48
2021/04/30 04:12:37;;;;;;;10.13;8.55;;;;;;;12.91;67.41;99361.25;1744892;81;21192;-48
2021/04/30 04:15:06;;;;;;;13.15;8.58;;;;;;;12.91;67.26;99358.05;1742779;80;21224;-48
2021/04/30 04:17:35;;;;;;;11.10;9.13;;;;;;;12.91;67.12;99355.34;1750713;80;21168;-51
2021/04/30 04:20:04;;;;;;;13.40;8.75;;;;;;;12.93;67.08;99353.39;1744332;80;21014;-52
2021/04/30 04:22:32;;;;;;;15.30;8.93;;;;;;;12.95;66.85;99362.30;1746185;80;22118;-49
2021/04/30 04:25:00;;;;;;;11.78;8.68;;;;;;;12.97;66.68;99362.19;1739995;81;21034;-51
2021/04/30 04:27:28;;;;;;;10.70;8.85;;;;;;;12.99;66.69;99361.10;1745024;79;21171;-53
2021/04/30 04:29:56;;;;;;;10.88;8.63;;;;;;;13.02;66.53;99360.05;1743089;79;21121;-54
2021/04/30 04:32:24;;;;;;;12.45;8.45;;;;;;;13.02;66.33;99354.14;1747303;79;21069;-51
2021/04/30 04:34:52;;;;;;;11.18;8.53;;;;;;;13.05;66.19;99356.66;1746058;79;21586;-50
2021/04/30 04:37:20;;;;;;;11.20;8.93;;;;;;;13.07;66.15;99348.43;1741872;80;21159;-52
2021/04/30 04:39:48;;;;;;;10.20;8.20;;;;;;;13.13;65.94;99343.09;1745244;80;21132;-52
2021/04/30 04:42:15;;;;;;;11.88;8.60;;;;;;;13.20;65.71;99336.27;1744516;81;21017;-55
2021/04/30 04:44:44;;;;;;;9.18;7.78;;;;;;;13.25;65.49;99346.34;1749251;79;21141;-51
2021/04/30 04:47:12;;;;;;;11.93;7.80;;;;;;;13.30;65.34;99337.42;1751874;79;21363;-56
2021/04/30 04:49:40;;;;;;;9.93;8.28;;;;;;;13.34;65.04;99336.25;1750032;79;21018;-53
2021/04/30 04:52:08;;;;;;;10.13;8.48;;;;;;;13.42;64.95;99340.64;1745913;79;21168;-51
2021/04/30 04:54:37;;;;;;;9.10;7.50;;;;;;;13.52;64.70;99348.52;1741072;79;21570;-52
2021/04/30 04:57:06;;;;;;;9.20;7.75;;;;;;;13.59;64.51;99339.02;1741729;80;21151;-52
2021/04/30 04:59:35;;;;;;;12.45;8.05;;;;;;;13.72;64.30;99344.92;1742824;80;22282;-53
2021/04/30 05:02:03;;;;;;;11.28;7.80;;;;;;;13.80;63.64;99345.27;1743745;79;21018;-52
2021/04/30 05:04:32;;;;;;;10.13;7.33;;;;;;;13.85;63.25;99341.75;1737499;80;21158;-51
2021/04/30 05:07:00;;;;;;;8.50;6.92;;;;;;;13.90;62.99;99349.05;1742014;79;20978;-51
2021/04/30 05:09:29;;;;;;;8.65;7.00;;;;;;;13.93;62.65;99355.63;1737185;79;20990;-51
2021/04/30 05:11:57;;;;;;;9.60;8.05;;;;;;;13.93;62.41;99352.91;1738422;79;22289;-50
2021/04/30 05:14:25;;;;;;;9.85;7.05;;;;;;;13.92;62.38;99346.25;1737433;79;21159;-52
2021/04/30 05:16:54;;;;;;;10.23;7.33;;;;;;;13.93;62.50;99344.78;1740110;80;21065;-53
2021/04/30 05:19:22;;;;;;;16.23;7.62;;;;;;;13.96;62.49;99341.86;1744174;80;21531;-52
2021/04/30 05:21:50;;;;;;;8.85;7.20;;;;;;;13.97;62.54;99345.44;1739483;80;21144;-52
2021/04/30 05:24:18;;;;;;;8.38;7.10;;;;;;;13.97;62.60;99334.59;1736816;81;22061;-52
2021/04/30 05:26:46;;;;;;;10.78;7.25;;;;;;;13.94;62.62;99335.66;1738069;81;21197;-51
2021/04/30 05:29:15;;;;;;;8.83;6.70;;;;;;;13.96;62.67;99343.70;1748370;79;20951;-52
2021/04/30 05:31:43;;;;;;;9.33;7.05;;;;;;;13.97;62.67;99336.81;1741656;81;20986;-53
2021/04/30 05:34:11;;;;;;;8.85;7.40;;;;;;;13.99;62.71;99343.47;1741253;80;20935;-52
2021/04/30 05:36:39;;;;;;;9.15;6.28;;;;;;;14.03;62.67;99343.16;1738233;81;22256;-51
2021/04/30 05:39:07;;;;;;;10.63;6.90;;;;;;;14.11;62.46;99327.22;1739557;80;21034;-53
2021/04/30 05:41:35;;;;;;;8.13;7.10;;;;;;;14.16;62.20;99329.08;1739896;80;21124;-51
2021/04/30 05:44:04;;;;;;;8.88;6.80;;;;;;;14.19;62.09;99331.22;1739592;80;21602;-52
2021/04/30 05:46:32;;;;;;;12.73;6.70;;;;;;;14.22;62.01;99330.97;1741065;79;20983;-52
2021/04/30 05:49:01;;;;;;;9.80;6.80;;;;;;;14.21;61.82;99329.25;1760040;78;21326;-52
2021/04/30 05:51:30;;;;;;;9.43;6.43;;;;;;;14.16;61.87;99322.30;1760176;80;21535;-51
2021/04/30 05:53:59;;;;;;;12.03;6.78;;;;;;;14.16;61.92;99320.94;1768245;80;21675;-51
2021/04/30 05:56:29;;;;;;;8.03;6.20;;;;;;;14.20;61.98;99326.16;1759168;78;21163;-54
2021/04/30 05:58:58;;;;;;;8.58;6.00;;;;;;;14.21;61.99;99329.25;1757971;79;21123;-51
2021/04/30 06:01:26;;;;;;;9.88;5.80;;;;;;;14.23;61.94;99327.31;1763108;79;21195;-53
2021/04/30 06:03:54;;;;;;;8.60;6.62;;;;;;;14.27;61.77;99329.66;1761873;78;21167;-53
2021/04/30 06:06:22;;;;;;;10.88;6.55;;;;;;;14.28;61.69;99320.58;1761285;79;21119;-52
2021/04/30 06:08:50;;;;;;;13.00;6.40;;;;;;;14.27;61.61;99318.81;1761302;79;21538;-53
2021/04/30 06:11:18;;;;;;;11.10;7.17;;;;;;;14.30;61.67;99318.60;1765024;77;21143;-53
2021/04/30 06:13:46;;;;;;;11.12;7.20;;;;;;;14.33;61.56;99320.24;1760175;78;21375;-53
2021/04/30 06:16:15;;;;;;;9.70;6.25;;;;;;;14.37;61.59;99324.44;1756912;78;21156;-54
2021/04/30 06:18:44;;;;;;;7.97;6.28;;;;;;;14.40;61.63;99322.38;1766531;78;21171;-53
2021/04/30 06:21:12;;;;;;;8.38;6.55;;;;;;;14.48;61.52;99320.48;1757447;79;21198;-52
2021/04/30 06:23:40;;;;;;;12.75;7.00;;;;;;;14.56;61.28;99312.66;1756818;79;21124;-52
2021/04/30 06:26:08;;;;;;;14.20;7.47;;;;;;;14.63;61.12;99315.30;1759497;79;21196;-54
2021/04/30 06:28:37;;;;;;;11.28;7.00;;;;;;;14.73;61.15;99315.48;1762105;78;21140;-53
2021/04/30 06:31:05;;;;;;;9.45;5.87;;;;;;;14.82;61.00;99319.38;1763825;78;21672;-53
2021/04/30 06:33:34;;;;;;;10.25;6.87;;;;;;;14.88;60.91;99302.62;1761423;78;21035;-51
2021/04/30 06:36:02;;;;;;;10.20;6.05;;;;;;;14.99;60.70;99309.95;1760776;79;21138;-52
2021/04/30 06:38:30;;;;;;;17.17;10.08;;;;;;;15.02;60.54;99307.88;1759489;78;21201;-53
2021/04/30 06:40:58;;;;;;;8.95;6.95;;;;;;;15.05;60.67;99308.99;1757488;78;21585;-55
2021/04/30 06:43:26;;;;;;;37.00;10.00;;;;;;;15.08;60.72;99299.27;1759120;78;21241;-51
2021/04/30 06:45:54;;;;;;;15.48;7.53;;;;;;;15.11;60.77;99297.66;1760255;80;21119;-54
2021/04/30 06:48:23;;;;;;;13.53;7.15;;;;;;;15.16;60.90;99296.81;1754705;79;21109;-54
2021/04/30 06:50:52;;;;;;;30.30;8.55;;;;;;;15.22;60.98;99316.34;1744674;81;21334;-52
2021/04/30 06:53:20;;;;;;;13.43;7.00;;;;;;;15.29;61.08;99306.77;1745655;79;21636;-53
2021/04/30 06:55:48;;;;;;;20.30;8.60;;;;;;;15.38;61.05;99308.75;1741953;79;21626;-52
2021/04/30 06:58:16;;;;;;;20.27;7.05;;;;;;;15.49;61.14;99311.50;1750223;79;21172;-53
2021/04/30 07:00:44;;;;;;;24.52;7.80;;;;;;;15.62;61.37;99307.35;1740961;81;21169;-56
2021/04/30 07:03:13;;;;;;;14.58;7.05;;;;;;;15.73;61.33;99303.83;1748892;79;21949;-54
2021/04/30 07:05:43;;;;;;;16.35;7.50;;;;;;;15.85;61.27;99306.93;1733666;81;21137;-55
2021/04/30 07:08:11;;;;;;;15.43;6.72;;;;;;;15.94;61.18;99298.91;1745363;79;21168;-53
2021/04/30 07:10:39;;;;;;;10.38;6.35;;;;;;;15.99;60.96;99295.83;1740258;79;21122;-50
2021/04/30 07:13:11;;;;;;;9.30;6.25;;;;;;;16.01;60.87;99293.84;1744360;81;21017;-51
2021/04/30 07:15:38;;;;;;;8.68;6.15;;;;;;;16.01;60.95;99297.92;1741485;79;22246;-51
2021/04/30 07:18:06;;;;;;;11.83;6.78;;;;;;;16.03;60.99;99300.02;1738940;81;21172;-53
2021/04/30 07:20:35;;;;;;;11.35;6.53;;;;;;;16.10;60.91;99303.98;1744196;79;21030;-52
2021/04/30 07:23:04;;;;;;;12.35;6.92;;;;;;;16.18;61.07;99293.34;1737342;79;21058;-51
2021/04/30 07:25:33;;;;;;;11.57;6.28;;;;;;;16.30;60.83;99298.78;1740462;79;21116;-52
2021/04/30 07:28:01;;;;;;;13.58;7.17;;;;;;;16.40;60.81;99292.45;1737418;80;21502;-51
2021/04/30 07:30:31;;;;;;;16.45;7.62;;;;;;;16.53;60.53;99297.78;1738415;79;21136;-51
2021/04/30 07:32:59;;;;;;;9.18;6.62;;;;;;;16.67;60.24;99293.44;1739910;79;21152;-53
2021/04/30 07:35:29;;;;;;;8.10;6.65;;;;;;;16.78;59.94;99287.59;1737282;81;21136;-50
2021/04/30 07:37:57;;;;;;;12.03;6.80;;;;;;;16.80;59.94;99280.19;1747708;79;21168;-51
2021/04/30 07:40:25;;;;;;;11.40;7.17;;;;;;;16.81;60.07;99275.96;1743960;79;21442;-50
2021/04/30 07:42:52;;;;;;;10.30;6.78;;;;;;;16.80;60.00;99282.91;1741707;81;21535;-51
2021/04/30 07:45:20;;;;;;;9.38;6.47;;;;;;;16.79;60.16;99282.55;1750055;81;21124;-50
2021/04/30 07:47:48;;;;;;;12.43;7.00;;;;;;;16.81;60.05;99281.91;1747200;79;21164;-49
2021/04/30 07:50:17;;;;;;;8.05;6.42;;;;;;;16.78;60.11;99284.87;1758592;80;21108;-50
2021/04/30 07:52:45;;;;;;;14.75;7.33;;;;;;;16.75;60.08;99286.88;1769822;79;21487;-51
2021/04/30 07:55:13;;;;;;;13.05;7.25;;;;;;;16.75;60.24;99278.70;1759027;79;21613;-51
2021/04/30 07:57:41;;;;;;;8.90;6.35;;;;;;;16.79;60.07;99273.02;1755785;79;20950;-51
2021/04/30 08:00:10;;;;;;;11.35;6.95;;;;;;;16.81;59.94;99275.10;1755721;80;21136;-51
2021/04/30 08:02:42;;;;;;;8.30;6.12;;;;;;;16.84;59.99;99268.05;1763092;79;21105;-51
2021/04/30 08:05:11;;;;;;;16.50;6.85;;;;;;;16.88;59.87;99265.41;1760899;80;21424;-56
2021/04/30 08:07:41;;;;;;;12.18;6.75;;;;;;;16.94;59.80;99266.28;1753621;79;21187;-50
2021/04/30 08:10:10;;;;;;;14.20;6.08;;;;;;;17.08;59.62;99271.91;1756360;79;21620;-51
2021/04/30 08:12:39;;;;;;;9.85;6.03;;;;;;;17.18;59.31;99260.09;1754248;78;21162;-50
2021/04/30 08:15:08;;;;;;;6.95;5.92;;;;;;;17.29;58.69;99260.04;1753771;80;21106;-50
2021/04/30 08:17:36;;;;;;;10.45;5.58;;;;;;;17.36;58.35;99248.60;1762855;80;21439;-53
2021/04/30 08:20:05;;;;;;;9.08;5.78;;;;;;;17.41;58.02;99258.61;1766639;80;21270;-50
2021/04/30 08:22:33;;;;;;;9.20;5.22;;;;;;;17.45;57.87;99262.31;1763557;79;21151;-50
2021/04/30 08:25:02;;;;;;;9.63;6.10;;;;;;;17.52;57.68;99259.91;1768670;80;21124;-51
2021/04/30 08:27:30;;;;;;;14.78;6.33;;;;;;;17.60;57.04;99252.44;1764714;80;21526;-50
2021/04/30 08:29:57;;;;;;;9.65;5.65;;;;;;;17.59;56.81;99257.03;1755226;80;21542;-51
2021/04/30 08:32:26;;;;;;;7.28;5.60;;;;;;;17.57;56.51;99248.10;1755061;80;21557;-55
2021/04/30 08:34:54;;;;;;;7.90;5.28;;;;;;;17.56;56.46;99251.83;1758545;80;21111;-51
2021/04/30 08:37:22;;;;;;;10.80;5.47;;;;;;;17.59;56.03;99235.22;1767333;79;21660;-50
2021/04/30 08:39:50;;;;;;;9.88;5.22;;;;;;;17.61;55.68;99237.80;1769370;78;21096;-51
2021/04/30 08:42:18;;;;;;;11.45;5.83;;;;;;;17.60;55.71;99236.08;1724531;80;21518;-52
2021/04/30 08:44:48;;;;;;;11.85;5.60;;;;;;;17.62;54.99;99245.84;1723722;80;21144;-53
2021/04/30 08:47:17;;;;;;;8.45;5.53;;;;;;;17.61;54.91;99246.84;1714584;81;21147;-52
2021/04/30 08:49:46;;;;;;;10.30;7.05;;;;;;;17.69;54.80;99236.14;1699406;81;21147;-54
2021/04/30 08:52:18;;;;;;;12.20;5.95;;;;;;;17.80;54.66;99232.00;1735717;80;21116;-53
2021/04/30 08:54:50;;;;;;;7.20;5.67;;;;;;;17.92;54.86;99235.50;1733920;80;22338;-51
2021/04/30 08:57:24;;;;;;;7.40;5.42;;;;;;;18.01;54.69;99225.64;1730300;80;21625;-50
2021/04/30 08:59:54;;;;;;;9.75;5.42;;;;;;;18.11;54.57;99232.00;1741095;80;21017;-50
2021/04/30 09:02:25;;;;;;;12.00;6.03;;;;;;;18.20;54.13;99227.05;1738626;80;21594;-50
2021/04/30 09:04:53;;;;;;;9.60;5.42;;;;;;;18.24;53.78;99224.42;1730422;80;21125;-50
2021/04/30 09:09:13;;;;;;;5.83;5.00;;;;;;;18.36;53.84;99218.84;1744159;79;22865;-51
2021/04/30 09:11:48;;;;;;;12.40;5.80;;;;;;;18.35;53.49;99218.48;1711949;80;20971;-50
2021/04/30 09:17:13;;;;;;;10.55;5.20;;;;;;;18.41;52.59;99213.33;1787833;75;22761;-52
2021/04/30 09:19:48;;;;;;;12.23;5.70;;;;;;;18.35;52.42;99218.48;1756742;79;20946;-49
2021/04/30 09:22:35;;;;;;;9.45;5.25;;;;;;;18.33;52.75;99207.72;1755091;79;21092;-51
2021/04/30 09:25:07;;;;;;;11.10;6.60;;;;;;;18.38;52.89;99212.77;1755350;79;21798;-49
2021/04/30 09:27:44;;;;;;;;;;;;;;;18.44;52.84;99210.83;1766647;79;21542;-52
2021/04/30 09:30:29;;;;;;;10.10;4.83;;;;;;;18.52;52.68;99202.28;1756841;79;20137;-50
2021/04/30 09:33:15;;;;;;;10.03;5.35;;;;;;;18.57;51.86;99210.05;1757540;79;21081;-51
2021/04/30 09:35:53;;;;;;;10.58;4.78;;;;;;;18.54;51.80;99203.02;1757341;79;21380;-51
2021/04/30 09:38:28;;;;;;;6.08;4.78;;;;;;;18.53;52.03;99200.41;1753944;79;21013;-49
2021/04/30 09:41:12;;;;;;;5.90;4.55;;;;;;;18.58;51.87;99203.58;1760734;79;21001;-51
2021/04/30 09:43:51;;;;;;;11.97;5.60;;;;;;;18.64;51.83;99203.01;1761036;79;21112;-50
2021/04/30 09:46:35;;;;;;;8.73;5.37;;;;;;;18.68;51.71;99205.86;1758225;79;21088;-50
2021/04/30 09:49:15;;;;;;;7.65;5.03;;;;;;;18.72;51.62;99203.21;1758261;78;21119;-50
2021/04/30 09:51:54;;;;;;;6.97;4.83;;;;;;;18.77;51.46;99199.55;1756990;79;20966;-49
2021/04/30 09:54:29;;;;;;;9.05;5.35;;;;;;;18.86;51.28;99202.45;1759139;79;21131;-50
2021/04/30 09:57:24;;;;;;;10.20;6.08;;;;;;;18.92;50.98;99201.87;1755115;79;21878;-50
2021/04/30 10:00:10;;;;;;;11.33;4.92;;;;;;;18.95;50.97;99201.56;1757023;78;20989;-50
2021/04/30 10:02:44;;;;;;;9.23;4.90;;;;;;;18.99;51.13;99197.55;1759515;79;21365;-49
2021/04/30 10:05:18;;;;;;;8.95;5.45;;;;;;;19.07;51.01;99197.70;1754961;79;21647;-57
2021/04/30 10:07:48;;;;;;;9.03;5.05;;;;;;;19.14;50.89;99192.00;1751877;79;21660;-50
2021/04/30 10:10:19;;;;;;;8.20;4.75;;;;;;;19.20;50.57;99184.58;1754634;78;21691;-52
2021/04/30 10:12:49;;;;;;;10.10;4.15;;;;;;;19.20;50.40;99177.74;1756436;79;21565;-50
2021/04/30 10:15:19;;;;;;;9.25;4.92;;;;;;;19.19;50.08;99178.76;1763927;79;22097;-49
2021/04/30 10:17:48;;;;;;;11.60;5.55;;;;;;;19.18;50.40;99182.51;1763824;79;20973;-49
2021/04/30 10:20:16;;;;;;;8.00;4.50;;;;;;;19.24;50.39;99173.72;1756572;79;20977;-49
2021/04/30 10:22:45;;;;;;;11.15;4.75;;;;;;;19.31;50.28;99172.11;1758638;79;21016;-49
2021/04/30 10:25:17;;;;;;;7.67;4.80;;;;;;;19.36;49.98;99161.59;1756572;79;21036;-49
2021/04/30 10:27:52;;;;;;;6.95;4.70;;;;;;;19.41;49.86;99152.95;1762512;79;21553;-51
2021/04/30 10:30:41;;;;;;;10.93;4.30;;;;;;;19.46;49.70;99145.67;1760141;79;21024;-51
2021/04/30 10:33:37;;;;;;;10.18;4.90;;;;;;;19.49;49.63;99157.16;1727984;79;20993;-48
2021/04/30 10:36:19;;;;;;;9.20;4.25;;;;;;;19.68;49.61;99142.60;1796398;77;22836;-49
2021/04/30 10:38:50;;;;;;;7.62;4.25;;;;;;;19.75;49.14;99150.55;1779066;79;20974;-49
2021/04/30 10:41:36;;;;;;;4.35;3.75;;;;;;;19.82;49.02;99146.23;1780410;79;21383;-48
2021/04/30 10:44:22;;;;;;;10.70;4.58;;;;;;;19.89;48.79;99147.33;1780686;80;21114;-48
2021/04/30 10:47:12;;;;;;;8.03;4.65;;;;;;;19.97;48.84;99151.18;1776993;79;20990;-47
2021/04/30 10:50:12;;;;;;;6.60;4.37;;;;;;;20.16;48.83;99142.88;1812236;76;22760;-48
2021/04/30 10:52:47;;;;;;;8.23;4.15;;;;;;;20.29;48.74;99140.61;1804584;78;22712;-49
2021/04/30 10:55:18;;;;;;;8.55;4.60;;;;;;;20.35;48.31;99142.77;1772089;79;21038;-49
2021/04/30 10:57:56;;;;;;;9.60;4.53;;;;;;;20.36;48.13;99133.53;1728691;81;22267;-50
2021/04/30 11:00:41;;;;;;;8.68;4.90;;;;;;;20.43;48.27;99137.01;1787526;76;27814;-49
2021/04/30 11:03:20;;;;;;;9.08;5.80;;;;;;;20.43;48.25;99135.64;1758028;79;20942;-51
2021/04/30 11:05:58;;;;;;;7.33;5.05;;;;;;;20.39;48.24;99127.72;1757233;79;21381;-49
2021/04/30 11:08:54;;;;;;;10.93;4.53;;;;;;;20.45;48.48;99126.23;1799791;76;27751;-49
2021/04/30 11:11:37;;;;;;;10.25;4.72;;;;;;;20.47;48.55;99119.29;1792082;77;22154;-50
2021/04/30 11:14:31;;;;;;;8.63;4.93;;;;;;;20.55;48.58;99119.36;1778319;79;21427;-49
2021/04/30 11:16:59;;;;;;;6.83;3.92;;;;;;;20.60;48.27;99107.42;1778029;79;20983;-50
2021/04/30 11:19:30;;;;;;;11.08;4.85;;;;;;;20.59;48.38;99109.81;1776938;79;20998;-49
2021/04/30 11:22:15;;;;;;;13.55;5.87;;;;;;;20.62;48.39;99109.52;1778477;79;20966;-50
2021/04/30 11:24:50;;;;;;;14.85;5.58;;;;;;;20.72;48.60;99106.19;1775174;79;20983;-48
2021/04/30 11:27:24;;;;;;;17.00;5.70;;;;;;;20.87;48.32;99099.61;1776704;79;21438;-51
2021/04/30 11:29:55;;;;;;;17.80;5.87;;;;;;;21.00;48.02;99098.70;1777729;79;21672;-50
2021/04/30 11:32:27;;;;;;;7.60;4.90;;;;;;;21.04;47.95;99106.97;1736488;79;21155;-49
2021/04/30 11:34:58;;;;;;;12.15;5.15;;;;;;;21.05;47.94;99105.08;1777168;79;20931;-49
2021/04/30 11:37:28;;;;;;;6.33;4.12;;;;;;;21.05;47.78;99096.86;1763427;80;21540;-48
2021/04/30 11:42:36;;;;;;;10.63;4.97;;;;;;;21.15;48.09;99101.73;1809680;77;22832;-47
2021/04/30 11:45:06;;;;;;;9.53;5.00;;;;;;;21.18;47.96;99093.17;1791652;77;21037;-48
2021/04/30 11:47:37;;;;;;;8.68;4.22;;;;;;;21.22;47.50;99097.31;1785703;77;21572;-49
2021/04/30 11:50:10;;;;;;;5.50;4.30;;;;;;;21.20;47.59;99078.80;1794947;78;21052;-49
2021/04/30 11:52:41;;;;;;;6.95;4.15;;;;;;;21.21;47.66;99081.89;1812640;78;21553;-48
2021/04/30 11:55:13;;;;;;;8.68;3.65;;;;;;;21.30;47.34;99075.95;1785271;78;21049;-49